Time;durP1;ratioP1;P1;durP2;ratioP2;P2;SDS_P1;SDS_P2;PMS_P1;PMS_P2;Temp;Humidity;BMP_temperature;BMP_pressure;BME280_temperature;BME280_humidity;BME280_pressure;Samples;Min_cycle;Max_cycle;Signal;HPM_P1;HPM_P2
2022/05/09 00:00:56;;;;;;;;;;;13.60;99.90;;;;;;5083111;28;20393;-87
2022/05/09 00:06:27;;;;;;;;;;;13.50;99.90;;;;;;5075177;28;19916;-86
2022/05/09 00:09:03;;;;;;;;;;;13.50;99.90;;;;;;5062698;28;19912;-85
2022/05/09 00:14:32;;;;;;;;;;;13.40;99.90;;;;;;5075075;28;19919;-79
2022/05/09 00:17:09;;;;;;;;;;;13.40;99.90;;;;;;5056123;28;20276;-79
2022/05/09 00:19:51;;;;;;;;;;;13.30;99.90;;;;;;5056290;28;20363;-79
2022/05/09 00:22:53;;;;;;;;;;;13.30;99.90;;;;;;5074200;28;19912;-81
2022/05/09 00:25:22;;;;;;;;;;;13.30;99.90;;;;;;5006036;28;20052;-79
2022/05/09 00:27:57;;;;;;;;;;;13.30;99.90;;;;;;4962040;28;19918;-80
2022/05/09 00:30:33;;;;;;;;;;;13.20;99.90;;;;;;4987652;28;19909;-79
2022/05/09 00:33:09;;;;;;;;;;;13.20;99.90;;;;;;4991943;28;19914;-79
2022/05/09 00:35:36;;;;;;;;;;;13.20;99.90;;;;;;4995489;28;19921;-79
2022/05/09 00:38:15;;;;;;;;;;;13.10;99.90;;;;;;5006176;28;19959;-79
2022/05/09 00:41:28;;;;;;;;;;;13.10;99.90;;;;;;4987430;28;19926;-78
2022/05/09 00:47:03;;;;;;;;;;;13.00;99.90;;;;;;4990665;28;19921;-86
2022/05/09 00:50:03;;;;;;;;;;;13.00;99.90;;;;;;4993277;28;19914;-86
2022/05/09 00:53:03;;;;;;;;;;;12.90;99.90;;;;;;4990105;28;20296;-86
2022/05/09 00:58:36;;;;;;;;;;;12.90;1.00;;;;;;5012139;28;19912;-79
2022/05/09 01:01:03;;;;;;;;;;;12.80;1.00;;;;;;5091359;28;19916;-79
2022/05/09 01:03:32;;;;;;;;;;;12.80;1.00;;;;;;5079815;28;19978;-78
2022/05/09 01:06:03;;;;;;;;;;;12.80;1.00;;;;;;5074778;28;19958;-79
2022/05/09 01:08:45;;;;;;;;;;;12.70;1.00;;;;;;5074690;28;20386;-79
2022/05/09 01:11:23;;;;;;;;;;;12.70;1.00;;;;;;5055830;28;19931;-79
2022/05/09 01:20:03;;;;;;;;;;;12.60;1.00;;;;;;5097831;28;20016;-86
2022/05/09 01:23:03;;;;;;;;;;;12.60;1.00;;;;;;5088749;28;19912;-85
2022/05/09 01:28:33;;;;;;;;;;;12.60;1.00;;;;;;5085485;28;19919;-79
2022/05/09 01:31:02;;;;;;;;;;;12.60;1.00;;;;;;5080022;28;19912;-79
2022/05/09 01:33:32;;;;;;;;;;;12.50;1.00;;;;;;5091199;28;19908;-79
2022/05/09 01:36:03;;;;;;;;;;;12.60;1.00;;;;;;5091511;28;19912;-79
2022/05/09 01:38:34;;;;;;;;;;;12.50;1.00;;;;;;5062586;28;20279;-79
2022/05/09 01:41:00;;;;;;;;;;;12.50;1.00;;;;;;5085714;28;19920;-78
2022/05/09 01:43:43;;;;;;;;;;;12.50;1.00;;;;;;5082703;28;19913;-79
2022/05/09 01:46:21;;;;;;;;;;;12.50;1.00;;;;;;5078662;28;20028;-79
2022/05/09 01:51:49;;;;;;;;;;;12.50;1.00;;;;;;5064693;28;20022;-78
2022/05/09 01:57:39;;;;;;;;;;;12.50;1.00;;;;;;5096292;28;19965;-78
2022/05/09 02:03:32;;;;;;;;;;;12.40;1.00;;;;;;5084550;28;19965;-86
2022/05/09 02:06:27;;;;;;;;;;;12.40;1.00;;;;;;5071515;28;19920;-86
2022/05/09 02:12:21;;;;;;;;;;;12.30;1.00;;;;;;5086145;28;19919;-86
2022/05/09 02:14:48;;;;;;;;;;;12.30;1.00;;;;;;5059324;28;19913;-78
2022/05/09 02:17:15;;;;;;;;;;;12.30;1.00;;;;;;5078117;28;20386;-79
2022/05/09 02:19:45;;;;;;;;;;;12.20;1.00;;;;;;5058698;28;19916;-78
2022/05/09 02:22:15;;;;;;;;;;;12.20;1.00;;;;;;5090634;28;19916;-78
2022/05/09 02:24:40;;;;;;;;;;;12.20;1.00;;;;;;5082554;28;20390;-78
2022/05/09 02:27:07;;;;;;;;;;;12.10;1.00;;;;;;5075651;28;19908;-78
2022/05/09 02:29:33;;;;;;;;;;;12.10;1.00;;;;;;5091022;28;19912;-79
2022/05/09 02:32:03;;;;;;;;;;;12.10;1.00;;;;;;5077704;28;19919;-78
2022/05/09 02:34:29;;;;;;;;;;;12.10;1.00;;;;;;5091137;28;20409;-79
2022/05/09 02:37:03;;;;;;;;;;;12.00;1.00;;;;;;5075395;28;19908;-78
2022/05/09 02:39:33;;;;;;;;;;;12.00;1.00;;;;;;5086978;28;20374;-78
2022/05/09 02:42:21;;;;;;;;;;;12.00;1.00;;;;;;5086591;28;19966;-80
2022/05/09 02:44:46;;;;;;;;;;;12.00;1.00;;;;;;5066198;28;19916;-87
2022/05/09 02:50:33;;;;;;;;;;;12.00;1.00;;;;;;5079430;28;20383;-87
2022/05/09 02:53:03;;;;;;;;;;;11.90;1.00;;;;;;5058861;28;19909;-86
2022/05/09 02:55:33;;;;;;;;;;;11.90;1.00;;;;;;5089978;28;19964;-87
2022/05/09 03:01:03;;;;;;;;;;;11.90;1.00;;;;;;5068153;28;19976;-87
2022/05/09 03:06:32;;;;;;;;;;;11.80;1.00;;;;;;5088174;28;19915;-86
2022/05/09 03:09:33;;;;;;;;;;;11.70;1.00;;;;;;5077855;28;19994;-87
2022/05/09 03:15:03;;;;;;;;;;;11.70;1.00;;;;;;5086665;28;20362;-86
2022/05/09 03:17:39;;;;;;;;;;;11.60;1.00;;;;;;5095728;28;19908;-86
2022/05/09 03:20:09;;;;;;;;;;;11.60;1.00;;;;;;5078088;28;19923;-87
2022/05/09 03:23:04;;;;;;;;;;;11.60;1.00;;;;;;5076657;28;19971;-87
2022/05/09 03:25:33;;;;;;;;;;;11.50;1.00;;;;;;5065901;28;19961;-86
2022/05/09 03:28:33;;;;;;;;;;;11.50;1.00;;;;;;5077546;28;20282;-87
2022/05/09 03:31:04;;;;;;;;;;;11.50;1.00;;;;;;5077078;28;19920;-86
2022/05/09 03:34:03;;;;;;;;;;;11.50;1.00;;;;;;5055931;28;20321;-87
2022/05/09 03:36:33;;;;;;;;;;;11.40;1.00;;;;;;5048041;28;19915;-87
2022/05/09 03:39:09;;;;;;;;;;;11.40;1.00;;;;;;5057507;28;20244;-87
2022/05/09 03:47:57;;;;;;;;;;;11.40;1.00;;;;;;5084618;28;20382;-86
2022/05/09 03:50:33;;;;;;;;;;;11.40;1.00;;;;;;5066367;28;19920;-86
2022/05/09 03:53:03;;;;;;;;;;;11.40;1.00;;;;;;5061376;28;19955;-85
2022/05/09 03:55:33;;;;;;;;;;;11.40;1.00;;;;;;5057596;28;19931;-85
2022/05/09 03:58:03;;;;;;;;;;;11.40;1.00;;;;;;5062657;28;19938;-86
2022/05/09 04:00:32;;;;;;;;;;;11.40;1.00;;;;;;5068760;28;19916;-78
2022/05/09 04:03:15;;;;;;;;;;;11.40;1.00;;;;;;5073062;28;19912;-78
2022/05/09 04:05:41;;;;;;;;;;;11.40;1.00;;;;;;5054569;28;19920;-78
2022/05/09 04:08:09;;;;;;;;;;;11.40;1.00;;;;;;5056554;28;19908;-78
2022/05/09 04:10:42;;;;;;;;;;;11.40;1.00;;;;;;5074222;28;19965;-78
2022/05/09 04:13:21;;;;;;;;;;;11.40;1.00;;;;;;5087715;28;19909;-78
2022/05/09 04:18:45;;;;;;;;;;;11.40;1.00;;;;;;5092261;28;19919;-79
2022/05/09 04:21:11;;;;;;;;;;;11.40;1.00;;;;;;5094141;28;19916;-78
2022/05/09 04:23:38;;;;;;;;;;;11.40;1.00;;;;;;5092787;28;19912;-78
2022/05/09 04:26:05;;;;;;;;;;;11.50;1.00;;;;;;5094498;28;19913;-77
2022/05/09 04:28:31;;;;;;;;;;;11.50;1.00;;;;;;5074401;28;19918;-78
2022/05/09 04:30:56;;;;;;;;;;;11.50;1.00;;;;;;5074356;28;19909;-78
2022/05/09 04:33:41;;;;;;;;;;;11.50;1.00;;;;;;5091269;28;20374;-78
2022/05/09 04:36:22;;;;;;;;;;;11.50;1.00;;;;;;5092240;28;19915;-78
2022/05/09 04:39:03;;;;;;;;;;;11.60;1.00;;;;;;5092410;28;20003;-78
2022/05/09 04:41:33;;;;;;;;;;;11.60;1.00;;;;;;5093865;28;19916;-78
2022/05/09 04:44:05;;;;;;;;;;;11.70;1.00;;;;;;5084789;28;20003;-79
2022/05/09 04:46:33;;;;;;;;;;;11.80;1.00;;;;;;5068888;28;19943;-87
2022/05/09 04:49:21;;;;;;;;;;;11.80;1.00;;;;;;5093766;28;19909;-85
2022/05/09 04:55:03;;;;;;;;;;;11.90;1.00;;;;;;5078454;28;19946;-86
2022/05/09 04:57:33;;;;;;;;;;;12.00;1.00;;;;;;5075377;28;19920;-86
2022/05/09 05:00:04;;;;;;;;;;;12.10;1.00;;;;;;5056575;28;19916;-79
2022/05/09 05:02:33;;;;;;;;;;;12.10;1.00;;;;;;5074074;28;19912;-80
2022/05/09 05:05:04;;;;;;;;;;;12.20;1.00;;;;;;5073482;28;19916;-78
2022/05/09 05:07:33;;;;;;;;;;;12.20;1.00;;;;;;5086427;28;19919;-79
2022/05/09 05:10:03;;;;;;;;;;;12.30;1.00;;;;;;5079999;28;19919;-78
2022/05/09 05:12:29;;;;;;;;;;;12.40;1.00;;;;;;5073958;28;20489;-70
2022/05/09 05:14:55;;;;;;;;;;;12.50;1.00;;;;;;5083479;28;20007;-71
2022/05/09 05:17:20;;;;;;;;;;;12.60;1.00;;;;;;5093212;28;20393;-71
2022/05/09 05:19:48;;;;;;;;;;;12.60;1.00;;;;;;5069946;28;19920;-71
2022/05/09 05:22:15;;;;;;;;;;;12.70;1.00;;;;;;5059419;28;20408;-71
2022/05/09 05:24:43;;;;;;;;;;;12.80;1.00;;;;;;5074853;28;20282;-71
2022/05/09 05:27:15;;;;;;;;;;;12.90;1.00;;;;;;5088463;28;19952;-71
2022/05/09 05:29:43;;;;;;;;;;;12.90;1.00;;;;;;5077700;28;19969;-71
2022/05/09 05:32:15;;;;;;;;;;;13.00;1.00;;;;;;5074492;28;19916;-71
2022/05/09 05:34:41;;;;;;;;;;;13.10;1.00;;;;;;5083676;28;19955;-71
2022/05/09 05:37:09;;;;;;;;;;;13.20;1.00;;;;;;5067135;28;19958;-70
2022/05/09 05:40:09;;;;;;;;;;;13.30;1.00;;;;;;5068938;28;19916;-80
2022/05/09 05:42:40;;;;;;;;;;;13.30;1.00;;;;;;5072679;28;19917;-80
2022/05/09 05:45:10;;;;;;;;;;;13.50;1.00;;;;;;5086183;28;19919;-82
2022/05/09 05:47:35;;;;;;;;;;;13.60;1.00;;;;;;5078117;28;19989;-78
2022/05/09 05:50:10;;;;;;;;;;;13.70;1.00;;;;;;5055797;28;20411;-79
2022/05/09 05:52:36;;;;;;;;;;;13.80;1.00;;;;;;5071392;28;19999;-78
2022/05/09 05:55:18;;;;;;;;;;;13.80;1.00;;;;;;5086350;28;20006;-77
2022/05/09 05:58:03;;;;;;;;;;;13.90;1.00;;;;;;5073051;28;19908;-78
2022/05/09 06:00:33;;;;;;;;;;;14.00;1.00;;;;;;5080922;28;19947;-77
2022/05/09 06:02:59;;;;;;;;;;;14.10;1.00;;;;;;5075910;28;20431;-77
2022/05/09 06:05:33;;;;;;;;;;;14.30;1.00;;;;;;5079087;28;19912;-76
2022/05/09 06:08:03;;;;;;;;;;;14.40;1.00;;;;;;5080185;28;19920;-77
2022/05/09 06:10:39;;;;;;;;;;;14.50;99.90;;;;;;5081984;28;19919;-76
2022/05/09 06:13:15;;;;;;;;;;;14.60;99.90;;;;;;5055732;28;19998;-77
2022/05/09 06:15:45;;;;;;;;;;;14.60;99.90;;;;;;5084082;28;19912;-77
2022/05/09 06:18:46;;;;;;;;;;;14.80;99.90;;;;;;5084777;28;20420;-86
2022/05/09 06:21:33;;;;;;;;;;;14.80;99.90;;;;;;5079307;28;20421;-86
2022/05/09 06:24:04;;;;;;;;;;;14.90;99.90;;;;;;5088646;28;19961;-87
2022/05/09 06:26:30;;;;;;;;;;;15.00;99.90;;;;;;5082424;28;20003;-87
2022/05/09 06:28:55;;;;;;;;;;;15.10;99.90;;;;;;5096505;28;19930;-86
2022/05/09 06:31:21;;;;;;;;;;;15.10;99.90;;;;;;5082508;28;19916;-80
2022/05/09 06:33:46;;;;;;;;;;;15.20;99.90;;;;;;5083127;28;20186;-86
2022/05/09 06:36:12;;;;;;;;;;;15.30;99.90;;;;;;5081502;28;19948;-87
2022/05/09 06:38:45;;;;;;;;;;;15.40;99.90;;;;;;5057970;28;19919;-87
2022/05/09 06:41:11;;;;;;;;;;;15.50;99.90;;;;;;5072454;28;19964;-87
2022/05/09 06:43:36;;;;;;;;;;;15.60;99.90;;;;;;5065468;28;20306;-87
2022/05/09 06:46:02;;;;;;;;;;;15.80;99.90;;;;;;5085680;28;20383;-87
2022/05/09 06:48:28;;;;;;;;;;;15.80;99.90;;;;;;5090042;28;19964;-78
2022/05/09 06:50:54;;;;;;;;;;;16.10;99.90;;;;;;5074882;28;20389;-77
2022/05/09 06:53:19;;;;;;;;;;;16.10;99.90;;;;;;5078563;28;19920;-78
2022/05/09 06:55:49;;;;;;;;;;;16.20;99.90;;;;;;5088437;28;19912;-78
2022/05/09 06:58:17;;;;;;;;;;;16.30;99.90;;;;;;5086091;28;19920;-77
2022/05/09 07:00:44;;;;;;;;;;;16.60;99.90;;;;;;5080699;28;19920;-77
2022/05/09 07:03:12;;;;;;;;;;;16.50;99.90;;;;;;5084287;28;20267;-87
2022/05/09 07:05:38;;;;;;;;;;;16.70;99.90;;;;;;5094397;28;20431;-87
2022/05/09 07:08:04;;;;;;;;;;;16.70;99.90;;;;;;5083636;28;20367;-87
2022/05/09 07:10:29;;;;;;;;;;;16.80;99.90;;;;;;5071138;28;19916;-87
2022/05/09 07:12:56;;;;;;;;;;;16.90;99.90;;;;;;5084122;28;19955;-87
2022/05/09 07:15:23;;;;;;;;;;;17.10;99.90;;;;;;5081252;28;19947;-87
2022/05/09 07:17:50;;;;;;;;;;;17.20;99.90;;;;;;5087336;28;19935;-87
2022/05/09 07:20:16;;;;;;;;;;;17.20;99.90;;;;;;5088231;28;19927;-87
2022/05/09 07:22:41;;;;;;;;;;;17.30;99.90;;;;;;5078021;28;19923;-87
2022/05/09 07:25:09;;;;;;;;;;;17.40;99.90;;;;;;5087722;28;20278;-87
2022/05/09 07:27:35;;;;;;;;;;;17.40;99.90;;;;;;5069095;28;20248;-87
2022/05/09 07:30:00;;;;;;;;;;;17.60;99.90;;;;;;5089756;28;19916;-87
2022/05/09 07:32:26;;;;;;;;;;;17.70;99.90;;;;;;5087965;28;19980;-78
2022/05/09 07:34:51;;;;;;;;;;;17.80;99.90;;;;;;5092741;28;19919;-77
2022/05/09 07:37:17;;;;;;;;;;;17.90;99.90;;;;;;5074897;28;19913;-78
2022/05/09 07:39:43;;;;;;;;;;;18.00;99.90;;;;;;5075202;28;20363;-77
2022/05/09 07:42:08;;;;;;;;;;;18.00;99.90;;;;;;5073984;28;19921;-77
2022/05/09 07:44:34;;;;;;;;;;;18.10;99.90;;;;;;5083546;28;20276;-78
2022/05/09 07:47:00;;;;;;;;;;;18.20;99.90;;;;;;5067318;28;19919;-77
2022/05/09 07:49:25;;;;;;;;;;;18.30;99.90;;;;;;5075143;28;19920;-78
2022/05/09 07:51:51;;;;;;;;;;;18.40;99.90;;;;;;5066805;28;19911;-78
2022/05/09 07:54:16;;;;;;;;;;;18.40;99.90;;;;;;5067614;28;19946;-78
2022/05/09 07:56:43;;;;;;;;;;;18.50;99.90;;;;;;5074453;28;19972;-78
2022/05/09 07:59:09;;;;;;;;;;;18.60;99.90;;;;;;5083509;28;19962;-78
2022/05/09 08:01:35;;;;;;;;;;;18.70;99.90;;;;;;5084122;28;20274;-78
2022/05/09 08:04:01;;;;;;;;;;;18.90;99.90;;;;;;5080845;28;20011;-78
2022/05/09 08:06:26;;;;;;;;;;;18.90;99.90;;;;;;5087113;28;20408;-78
2022/05/09 08:08:52;;;;;;;;;;;19.00;99.90;;;;;;5059593;28;20356;-78
2022/05/09 08:11:17;;;;;;;;;;;19.10;99.90;;;;;;5085993;28;19957;-78
2022/05/09 08:13:43;;;;;;;;;;;19.30;99.90;;;;;;5079777;28;19927;-78
2022/05/09 08:16:09;;;;;;;;;;;19.50;99.90;;;;;;5066234;28;19959;-78
2022/05/09 08:18:35;;;;;;;;;;;19.60;99.90;;;;;;5090614;28;19908;-87
2022/05/09 08:21:01;;;;;;;;;;;19.70;99.90;;;;;;5075872;28;19912;-88
2022/05/09 08:23:27;;;;;;;;;;;19.90;99.90;;;;;;5080677;28;19908;-88
2022/05/09 08:25:55;;;;;;;;;;;20.00;99.90;;;;;;5060598;28;20356;-87
2022/05/09 08:28:21;;;;;;;;;;;20.00;99.90;;;;;;5093349;28;19912;-87
2022/05/09 08:30:48;;;;;;;;;;;20.10;99.90;;;;;;5082319;28;19919;-88
2022/05/09 08:33:15;;;;;;;;;;;20.20;99.90;;;;;;5075952;28;20360;-88
2022/05/09 08:35:44;;;;;;;;;;;20.20;99.90;;;;;;5063747;28;19912;-88
2022/05/09 08:38:10;;;;;;;;;;;20.30;99.90;;;;;;5053274;28;20352;-88
2022/05/09 08:40:57;;;;;;;;;;;20.30;99.90;;;;;;5087396;28;19920;-88
2022/05/09 08:43:55;;;;;;;;;;;20.40;99.90;;;;;;5070378;28;20379;-88
2022/05/09 08:46:38;;;;;;;;;;;20.50;99.90;;;;;;4986718;28;19921;-87
2022/05/09 08:49:22;;;;;;;;;;;20.70;99.90;;;;;;4980470;28;19926;-79
2022/05/09 08:52:06;;;;;;;;;;;20.80;99.90;;;;;;4972276;28;20391;-79
2022/05/09 08:54:31;;;;;;;;;;;20.90;99.90;;;;;;4984434;28;20436;-79
2022/05/09 08:57:00;;;;;;;;;;;21.00;99.90;;;;;;4975928;28;20004;-79
2022/05/09 08:59:33;;;;;;;;;;;21.10;99.90;;;;;;4973836;28;19918;-79
2022/05/09 09:02:20;;;;;;;;;;;21.20;99.90;;;;;;4977602;28;19914;-79
2022/05/09 09:04:52;;;;;;;;;;;21.30;99.90;;;;;;4983640;28;19914;-87
2022/05/09 09:07:29;;;;;;;;;;;21.40;99.90;;;;;;4974395;28;19952;-87
2022/05/09 09:09:55;;;;;;;;;;;21.50;99.90;;;;;;4979004;28;19969;-87
2022/05/09 09:12:29;;;;;;;;;;;21.40;99.90;;;;;;4991194;28;20281;-80
2022/05/09 09:15:03;;;;;;;;;;;21.50;99.90;;;;;;4990172;28;19921;-84
2022/05/09 09:20:57;;;;;;;;;;;21.70;99.90;;;;;;4967317;28;20434;-73
2022/05/09 09:23:28;;;;;;;;;;;21.90;99.90;;;;;;5087609;28;19920;-73
2022/05/09 09:26:26;;;;;;;;;;;22.00;99.90;;;;;;5073557;28;19971;-78
2022/05/09 09:29:15;;;;;;;;;;;22.10;99.90;;;;;;4991955;28;20605;-78
2022/05/09 09:31:44;;;;;;;;;;;22.20;99.90;;;;;;4987787;28;19925;-78
2022/05/09 09:34:33;;;;;;;;;;;22.40;99.90;;;;;;4987778;28;19922;-77
2022/05/09 09:37:13;;;;;;;;;;;22.40;99.90;;;;;;4992856;28;19917;-78
2022/05/09 09:40:03;;;;;;;;;;;22.40;99.90;;;;;;4986318;28;20012;-78
2022/05/09 09:42:33;;;;;;;;;;;22.40;99.90;;;;;;4986685;28;19922;-78
2022/05/09 09:45:03;;;;;;;;;;;22.50;99.90;;;;;;4994037;28;20009;-78
2022/05/09 09:47:39;;;;;;;;;;;22.70;99.90;;;;;;4995720;28;19946;-78
2022/05/09 09:50:29;;;;;;;;;;;22.70;99.90;;;;;;4995772;28;19913;-82
2022/05/09 09:53:03;;;;;;;;;;;22.80;99.90;;;;;;4991754;28;19999;-85
2022/05/09 10:01:34;;;;;;;;;;;22.90;99.90;;;;;;4995627;28;20455;-85
2022/05/09 10:10:39;;;;;;;;;;;23.20;99.90;;;;;;5070975;28;20278;-87
2022/05/09 10:13:18;;;;;;;;;;;23.30;99.90;;;;;;5069991;28;19920;-87
2022/05/09 10:15:45;;;;;;;;;;;23.50;99.90;;;;;;5078874;28;19982;-85
2022/05/09 10:18:18;;;;;;;;;;;23.60;99.90;;;;;;5060517;28;19908;-86
2022/05/09 10:20:44;;;;;;;;;;;23.70;99.90;;;;;;5066256;28;20054;-80
2022/05/09 10:25:59;;;;;;;;;;;24.00;99.90;;;;;;5081450;28;19919;-79
2022/05/09 10:28:26;;;;;;;;;;;24.20;99.90;;;;;;5075354;28;19947;-80
2022/05/09 10:30:57;;;;;;;;;;;24.20;99.90;;;;;;5084362;28;20021;-79
2022/05/09 10:33:23;;;;;;;;;;;24.20;99.90;;;;;;5085974;28;19912;-80
2022/05/09 10:35:53;;;;;;;;;;;24.20;99.90;;;;;;5078917;28;19912;-86
2022/05/09 10:38:26;;;;;;;;;;;24.10;99.90;;;;;;5084262;28;19912;-86
2022/05/09 10:40:54;;;;;;;;;;;24.00;99.90;;;;;;5070650;28;19916;-86
2022/05/09 10:43:25;;;;;;;;;;;24.10;99.90;;;;;;5067157;28;19912;-86
2022/05/09 10:45:52;;;;;;;;;;;24.20;99.90;;;;;;5076901;28;19919;-86
2022/05/09 10:48:17;;;;;;;;;;;24.30;99.90;;;;;;5088788;28;19919;-86
2022/05/09 10:53:57;;;;;;;;;;;24.20;99.90;;;;;;5076272;28;19916;-87
2022/05/09 10:59:26;;;;;;;;;;;24.30;99.90;;;;;;5082730;28;20305;-85
2022/05/09 11:02:24;;;;;;;;;;;24.40;99.90;;;;;;5067105;28;19964;-87
2022/05/09 11:04:57;;;;;;;;;;;24.40;99.90;;;;;;4978877;28;19961;-85
2022/05/09 11:07:29;;;;;;;;;;;24.50;99.90;;;;;;4995819;28;19961;-86
2022/05/09 11:10:15;;;;;;;;;;;24.60;99.90;;;;;;5008092;28;20381;-86
2022/05/09 11:13:00;;;;;;;;;;;24.70;99.90;;;;;;5004116;28;20012;-86
2022/05/09 11:15:29;;;;;;;;;;;24.90;99.90;;;;;;4975186;28;19911;-87
2022/05/09 11:17:57;;;;;;;;;;;24.90;99.90;;;;;;5006749;28;19910;-86
2022/05/09 11:20:30;;;;;;;;;;;25.10;99.90;;;;;;4995186;28;19921;-79
2022/05/09 11:23:16;;;;;;;;;;;25.30;99.90;;;;;;4999806;28;20357;-79
2022/05/09 11:25:55;;;;;;;;;;;25.30;99.90;;;;;;4904448;29;19927;-80
2022/05/09 11:31:32;;;;;;;;;;;25.30;99.90;;;;;;4914818;29;20430;-80
2022/05/09 11:34:09;;;;;;;;;;;25.50;99.90;;;;;;4906399;29;19995;-79
2022/05/09 11:37:05;;;;;;;;;;;25.70;99.90;;;;;;4916437;29;19923;-85
2022/05/09 11:39:49;;;;;;;;;;;25.60;99.90;;;;;;4842377;29;19964;-85
2022/05/09 11:45:46;;;;;;;;;;;25.50;99.90;;;;;;4824412;29;20027;-85
2022/05/09 11:51:32;;;;;;;;;;;25.70;99.90;;;;;;4823426;29;19989;-80
2022/05/09 11:54:04;;;;;;;;;;;25.90;99.90;;;;;;4806993;29;19917;-80
2022/05/09 11:56:30;;;;;;;;;;;26.00;99.90;;;;;;4828178;29;19981;-80
2022/05/09 11:58:56;;;;;;;;;;;26.20;99.90;;;;;;4822579;29;20049;-80
2022/05/09 12:01:41;;;;;;;;;;;26.40;99.90;;;;;;4822929;29;20015;-80
2022/05/09 12:04:06;;;;;;;;;;;26.40;99.90;;;;;;4909132;29;19926;-79
2022/05/09 12:06:35;;;;;;;;;;;26.40;99.90;;;;;;4907521;29;19916;-80
2022/05/09 12:09:08;;;;;;;;;;;26.30;99.90;;;;;;4915650;29;19979;-80
2022/05/09 12:11:46;;;;;;;;;;;26.50;99.90;;;;;;4914075;29;19915;-80
2022/05/09 12:14:31;;;;;;;;;;;26.60;99.90;;;;;;4886965;29;19926;-80
2022/05/09 12:16:56;;;;;;;;;;;26.80;99.90;;;;;;5055658;28;20287;-81
2022/05/09 12:19:31;;;;;;;;;;;26.70;99.90;;;;;;5083358;28;19921;-79
2022/05/09 12:22:15;;;;;;;;;;;26.40;99.90;;;;;;5061478;28;20260;-86
2022/05/09 12:24:44;;;;;;;;;;;26.10;99.90;;;;;;5078736;28;19919;-86
2022/05/09 12:27:28;;;;;;;;;;;26.00;99.90;;;;;;5073509;28;19974;-86
2022/05/09 12:29:55;;;;;;;;;;;26.10;99.90;;;;;;5090086;28;20166;-84
2022/05/09 12:32:21;;;;;;;;;;;26.10;99.90;;;;;;5073722;28;19908;-85
2022/05/09 12:34:47;;;;;;;;;;;26.00;99.90;;;;;;5074552;28;19929;-85
2022/05/09 12:37:15;;;;;;;;;;;25.90;99.90;;;;;;5077598;28;19935;-80
2022/05/09 12:39:46;;;;;;;;;;;25.80;99.90;;;;;;5060610;28;19912;-80
2022/05/09 12:42:23;;;;;;;;;;;25.70;99.90;;;;;;5093066;28;19922;-80
2022/05/09 12:44:50;;;;;;;;;;;25.60;99.90;;;;;;5093563;28;19916;-79
2022/05/09 12:47:29;;;;;;;;;;;25.60;99.90;;;;;;5078752;28;20027;-79
2022/05/09 12:50:15;;;;;;;;;;;25.40;99.90;;;;;;5083158;28;19908;-79
2022/05/09 12:52:59;;;;;;;;;;;25.60;99.90;;;;;;5072483;28;19912;-82
2022/05/09 12:58:23;;;;;;;;;;;26.30;99.90;;;;;;5092046;28;19962;-81
2022/05/09 13:01:09;;;;;;;;;;;26.60;99.90;;;;;;5074489;28;19916;-81
2022/05/09 13:03:52;;;;;;;;;;;27.00;99.90;;;;;;5060294;28;20019;-82
2022/05/09 13:06:24;;;;;;;;;;;27.00;99.90;;;;;;5084537;28;19908;-79
2022/05/09 13:08:51;;;;;;;;;;;27.10;99.90;;;;;;5075309;28;19912;-79
2022/05/09 13:11:22;;;;;;;;;;;27.10;99.90;;;;;;5073759;28;19916;-79
2022/05/09 13:13:54;;;;;;;;;;;27.20;99.90;;;;;;5066812;28;20715;-78
2022/05/09 13:16:32;;;;;;;;;;;27.40;99.90;;;;;;5084403;28;20335;-79
2022/05/09 13:19:21;;;;;;;;;;;27.50;99.90;;;;;;5093052;28;19919;-79
2022/05/09 13:21:51;;;;;;;;;;;27.50;99.90;;;;;;5064496;28;20011;-79
2022/05/09 13:24:31;;;;;;;;;;;27.80;99.90;;;;;;5089701;28;19930;-79
2022/05/09 13:27:27;;;;;;;;;;;28.00;99.90;;;;;;5061263;28;19909;-79
2022/05/09 13:29:57;;;;;;;;;;;28.30;99.90;;;;;;5081583;28;19912;-80
2022/05/09 13:32:51;;;;;;;;;;;28.70;99.90;;;;;;5067824;28;19916;-80
2022/05/09 13:35:30;;;;;;;;;;;29.00;99.90;;;;;;5057236;28;19954;-80
2022/05/09 13:37:57;;;;;;;;;;;28.80;99.90;;;;;;5088246;28;19916;-81
2022/05/09 13:40:23;;;;;;;;;;;28.70;99.90;;;;;;5087749;28;20366;-81
2022/05/09 13:42:57;;;;;;;;;;;28.60;99.90;;;;;;5079701;28;19915;-81
2022/05/09 13:45:45;;;;;;;;;;;28.60;99.90;;;;;;5089002;28;20386;-81
2022/05/09 13:48:16;;;;;;;;;;;28.50;99.90;;;;;;5056027;28;19999;-82
2022/05/09 13:50:48;;;;;;;;;;;28.50;99.90;;;;;;5086286;28;19957;-81
2022/05/09 13:53:19;;;;;;;;;;;28.50;99.90;;;;;;5079599;28;20139;-82
2022/05/09 13:55:45;;;;;;;;;;;28.50;99.90;;;;;;5067444;28;19913;-82
2022/05/09 13:58:18;;;;;;;;;;;28.40;99.90;;;;;;5082364;28;20394;-82
2022/05/09 14:01:21;;;;;;;;;;;28.30;99.90;;;;;;5085645;28;19965;-82
2022/05/09 14:04:15;;;;;;;;;;;28.40;99.90;;;;;;5086420;28;19969;-82
2022/05/09 14:06:41;;;;;;;;;;;28.70;99.90;;;;;;5082278;28;19951;-82
2022/05/09 14:12:15;;;;;;;;;;;28.90;99.90;;;;;;5078476;28;20012;-82
2022/05/09 14:14:41;;;;;;;;;;;28.90;99.90;;;;;;5074624;28;19919;-82
2022/05/09 14:17:20;;;;;;;;;;;29.00;99.90;;;;;;5058919;28;19913;-76
2022/05/09 14:19:48;;;;;;;;;;;29.10;99.90;;;;;;5080685;28;19912;-76
2022/05/09 14:22:45;;;;;;;;;;;29.10;99.90;;;;;;5076342;28;19919;-87
2022/05/09 14:31:21;;;;;;;;;;;28.60;99.90;;;;;;5070533;28;19958;-83
2022/05/09 14:33:51;;;;;;;;;;;28.50;99.90;;;;;;5082010;28;19909;-83
2022/05/09 14:36:45;;;;;;;;;;;28.60;99.90;;;;;;5084898;28;19963;-84
2022/05/09 14:42:14;;;;;;;;;;;28.70;99.90;;;;;;5072503;28;19924;-85
2022/05/09 14:50:53;;;;;;;;;;;28.80;99.90;;;;;;5075414;28;19918;-81
2022/05/09 14:53:18;;;;;;;;;;;29.10;99.90;;;;;;5085769;28;20320;-79
2022/05/09 14:58:41;;;;;;;;;;;29.20;99.90;;;;;;5076295;28;19931;-79
2022/05/09 15:01:09;;;;;;;;;;;29.40;99.90;;;;;;5075780;28;19912;-78
2022/05/09 15:03:36;;;;;;;;;;;29.40;99.90;;;;;;5087476;28;19916;-80
2022/05/09 15:06:03;;;;;;;;;;;29.50;99.90;;;;;;5075840;28;20282;-79
2022/05/09 15:11:34;;;;;;;;;;;29.30;99.90;;;;;;5076178;28;19919;-85
2022/05/09 15:14:27;;;;;;;;;;;29.60;99.90;;;;;;5075989;28;19980;-83
2022/05/09 15:17:03;;;;;;;;;;;30.60;99.90;;;;;;5088999;28;19908;-83
2022/05/09 15:19:45;;;;;;;;;;;32.40;99.90;;;;;;5075354;28;19987;-82
2022/05/09 15:22:33;;;;;;;;;;;34.10;99.90;;;;;;5057964;28;20333;-81
2022/05/09 15:24:58;;;;;;;;;;;35.80;99.90;;;;;;5075348;28;19914;-80
2022/05/09 15:27:28;;;;;;;;;;;36.30;99.90;;;;;;5085630;28;19908;-81
2022/05/09 15:29:54;;;;;;;;;;;37.60;99.90;;;;;;5091598;28;19909;-80
2022/05/09 15:32:21;;;;;;;;;;;37.60;99.90;;;;;;5075010;28;20386;-80
2022/05/09 15:34:47;;;;;;;;;;;39.20;99.90;;;;;;5078604;28;19908;-80
2022/05/09 15:37:27;;;;;;;;;;;40.20;99.90;;;;;;5066747;28;19916;-81
2022/05/09 15:39:57;;;;;;;;;;;40.60;99.90;;;;;;5074923;28;19913;-80
2022/05/09 15:42:28;;;;;;;;;;;41.50;99.90;;;;;;5075529;28;20021;-80
2022/05/09 15:44:56;;;;;;;;;;;42.20;99.90;;;;;;5069621;28;19913;-80
2022/05/09 15:47:40;;;;;;;;;;;42.40;99.90;;;;;;5079358;28;20356;-90
2022/05/09 15:50:12;;;;;;;;;;;42.80;99.90;;;;;;5086041;28;20351;-80
2022/05/09 15:52:45;;;;;;;;;;;42.90;99.90;;;;;;5078941;28;19915;-85
2022/05/09 15:58:14;;;;;;;;;;;43.50;99.90;;;;;;5074937;28;19962;-88
2022/05/09 16:00:45;;;;;;;;;;;43.70;99.90;;;;;;5074741;28;20360;-83
2022/05/09 16:03:14;;;;;;;;;;;43.10;99.90;;;;;;5074432;28;19917;-87
2022/05/09 16:11:28;;;;;;;;;;;44.40;99.90;;;;;;5081568;28;20054;-76
2022/05/09 16:13:57;;;;;;;;;;;44.50;99.90;;;;;;5082895;28;19912;-75
2022/05/09 16:16:33;;;;;;;;;;;44.50;99.90;;;;;;5086502;28;20067;-74
2022/05/09 16:19:00;;;;;;;;;;;44.40;99.90;;;;;;5084785;28;19915;-74
2022/05/09 16:21:26;;;;;;;;;;;44.30;99.90;;;;;;5094260;28;19916;-74
2022/05/09 16:23:53;;;;;;;;;;;44.20;99.90;;;;;;5085913;28;20279;-82
2022/05/09 16:29:22;;;;;;;;;;;43.10;99.90;;;;;;5094489;28;19919;-84
2022/05/09 16:32:03;;;;;;;;;;;42.30;99.90;;;;;;5087818;28;19909;-84
2022/05/09 16:34:46;;;;;;;;;;;41.60;99.90;;;;;;5074055;28;19955;-85
2022/05/09 16:37:39;;;;;;;;;;;41.10;99.90;;;;;;5074013;28;19909;-85
2022/05/09 16:43:11;;;;;;;;;;;41.20;99.90;;;;;;5057737;28;19924;-84
2022/05/09 16:45:36;;;;;;;;;;;41.40;99.90;;;;;;5073899;28;19943;-85
2022/05/09 16:48:15;;;;;;;;;;;41.60;99.90;;;;;;5079914;28;19916;-83
2022/05/09 16:51:09;;;;;;;;;;;41.90;99.90;;;;;;5079864;28;19958;-83
2022/05/09 16:53:46;;;;;;;;;;;41.80;99.90;;;;;;5077494;28;19908;-83
2022/05/09 16:56:16;;;;;;;;;;;42.00;99.90;;;;;;5094289;28;19908;-86
2022/05/09 16:58:57;;;;;;;;;;;42.20;99.90;;;;;;5093961;28;19908;-85
2022/05/09 17:04:27;;;;;;;;;;;42.60;99.90;;;;;;5082424;28;19962;-86
2022/05/09 17:07:03;;;;;;;;;;;42.70;99.90;;;;;;5078706;28;19912;-86
2022/05/09 17:09:29;;;;;;;;;;;42.10;99.90;;;;;;5084143;28;20294;-85
2022/05/09 17:12:21;;;;;;;;;;;40.80;99.90;;;;;;5091481;28;19934;-86
2022/05/09 17:18:04;;;;;;;;;;;37.80;99.90;;;;;;5076880;28;19915;-83